Time;durP1;ratioP1;P1;durP2;ratioP2;P2;SDS_P1;SDS_P2;PMS_P1;PMS_P2;Temp;Humidity;BMP_temperature;BMP_pressure;BME280_temperature;BME280_humidity;BME280_pressure;Samples;Min_cycle;Max_cycle;Signal;HPM_P1;HPM_P2
2023/10/09 00:01:46;;;;;;;7.63;4.37;;;15.70;99.90;;;;;;6111667;23;20279;-91
2023/10/09 00:04:13;;;;;;;9.63;3.90;;;15.70;99.90;;;;;;6109322;23;20208;-91
2023/10/09 00:06:54;;;;;;;6.37;3.20;;;15.80;99.90;;;;;;6144150;23;20203;-91
2023/10/09 00:11:54;;;;;;;8.80;4.37;;;15.80;99.90;;;;;;6104005;23;20176;-91
2023/10/09 00:14:19;;;;;;;11.80;5.20;;;15.80;99.90;;;;;;6104171;23;20144;-91
2023/10/09 00:16:49;;;;;;;15.73;5.97;;;15.80;99.90;;;;;;6102841;23;20219;-91
2023/10/09 00:21:51;;;;;;;10.80;5.17;;;15.80;99.90;;;;;;6105784;23;20199;-90
2023/10/09 00:24:23;;;;;;;14.10;5.17;;;15.80;99.90;;;;;;6128234;23;20236;-89
2023/10/09 00:26:56;;;;;;;11.60;5.20;;;15.80;99.90;;;;;;6115695;23;20160;-90
2023/10/09 00:29:22;;;;;;;20.03;6.07;;;15.80;99.90;;;;;;6103460;23;20149;-90
2023/10/09 00:31:56;;;;;;;17.47;6.97;;;15.80;99.90;;;;;;6128453;23;20233;-90
2023/10/09 00:34:26;;;;;;;16.43;6.90;;;15.80;99.90;;;;;;6152546;23;20278;-90
2023/10/09 00:36:53;;;;;;;11.67;6.20;;;15.80;99.90;;;;;;6081407;23;20200;-92
2023/10/09 00:39:33;;;;;;;12.43;6.87;;;15.80;99.90;;;;;;6152296;23;20253;-91
2023/10/09 00:42:01;;;;;;;14.43;7.63;;;15.80;99.90;;;;;;6133270;23;20570;-91
2023/10/09 00:44:38;;;;;;;17.77;6.50;;;15.90;99.90;;;;;;6107341;23;20167;-91
2023/10/09 00:52:49;;;;;;;10.83;7.27;;;15.90;99.90;;;;;;6107351;23;20707;-90
2023/10/09 00:55:21;;;;;;;13.60;7.17;;;15.90;99.90;;;;;;6129911;23;20212;-91
2023/10/09 00:57:58;;;;;;;20.03;6.47;;;15.90;99.90;;;;;;6130350;23;20539;-91
2023/10/09 01:00:46;;;;;;;17.63;7.00;;;15.90;99.90;;;;;;6132084;23;20210;-90
2023/10/09 01:11:20;;;;;;;24.90;7.03;;;15.90;99.90;;;;;;6109148;23;20180;-90
2023/10/09 01:16:18;;;;;;;12.83;6.13;;;15.90;99.90;;;;;;6128556;23;20219;-89
2023/10/09 01:18:46;;;;;;;12.87;7.67;;;15.90;99.90;;;;;;6117600;23;20202;-90
2023/10/09 01:21:25;;;;;;;15.83;9.03;;;15.80;99.90;;;;;;6110872;23;20195;-90
2023/10/09 01:24:03;;;;;;;12.00;7.87;;;15.80;99.90;;;;;;6132653;23;20143;-91
2023/10/09 01:26:39;;;;;;;21.63;7.00;;;15.80;99.90;;;;;;6115080;23;20178;-89
2023/10/09 01:29:14;;;;;;;19.17;7.70;;;15.80;99.90;;;;;;6133357;23;20210;-89
2023/10/09 01:31:54;;;;;;;15.73;7.60;;;15.80;99.90;;;;;;6134595;23;20281;-88
2023/10/09 01:37:25;;;;;;;15.63;9.13;;;15.80;99.90;;;;;;6136483;23;20195;-90
2023/10/09 01:39:59;;;;;;;13.30;5.93;;;15.80;99.90;;;;;;6138856;23;20243;-91
2023/10/09 01:42:34;;;;;;;24.00;9.43;;;15.80;99.90;;;;;;6156767;23;20197;-90
2023/10/09 01:45:27;;;;;;;25.33;10.67;;;15.80;99.90;;;;;;6134787;23;20146;-91
2023/10/09 01:47:56;;;;;;;17.03;8.20;;;15.80;99.90;;;;;;6116070;23;20180;-90
2023/10/09 01:50:27;;;;;;;18.27;7.83;;;15.80;99.90;;;;;;6111905;23;20179;-89
2023/10/09 01:52:55;;;;;;;12.57;7.00;;;15.80;99.90;;;;;;6160831;23;20640;-90
2023/10/09 01:55:35;;;;;;;14.30;8.27;;;15.80;99.90;;;;;;6110114;23;20239;-90
2023/10/09 01:58:24;;;;;;;14.83;7.37;;;15.80;99.90;;;;;;6111139;23;20643;-92
2023/10/09 02:01:01;;;;;;;18.43;9.33;;;15.80;99.90;;;;;;6160042;23;20559;-92
2023/10/09 02:03:30;;;;;;;13.97;7.77;;;15.80;99.90;;;;;;6161630;23;20191;-92
2023/10/09 02:05:59;;;;;;;27.73;9.43;;;15.80;99.90;;;;;;6112138;23;20159;-92
2023/10/09 02:08:35;;;;;;;18.07;8.10;;;15.80;99.90;;;;;;6135522;23;20258;-93
2023/10/09 02:11:03;;;;;;;20.80;7.67;;;15.70;99.90;;;;;;6135844;23;20222;-92
2023/10/09 02:13:34;;;;;;;20.90;9.83;;;15.70;99.90;;;;;;6112376;23;20200;-92
2023/10/09 02:16:28;;;;;;;17.53;9.03;;;15.70;99.90;;;;;;6136088;23;20497;-94
2023/10/09 02:18:56;;;;;;;19.87;9.90;;;15.70;99.90;;;;;;6114345;23;20202;-92
2023/10/09 02:21:56;;;;;;;17.00;8.33;;;15.70;99.90;;;;;;6110867;23;20194;-94
2023/10/09 02:24:27;;;;;;;16.67;9.43;;;15.70;99.90;;;;;;6118914;23;20195;-93
2023/10/09 02:29:23;;;;;;;15.50;8.37;;;15.80;99.90;;;;;;6135893;23;20450;-93
2023/10/09 02:32:00;;;;;;;15.90;8.87;;;15.80;99.90;;;;;;6135807;23;20198;-92
2023/10/09 02:34:29;;;;;;;16.73;9.20;;;15.80;99.90;;;;;;6111856;23;20193;-92
2023/10/09 02:37:05;;;;;;;14.00;7.90;;;15.90;99.90;;;;;;6110165;23;20578;-93
2023/10/09 02:39:43;;;;;;;22.57;8.47;;;15.90;99.90;;;;;;6135613;23;20214;-92
2023/10/09 02:44:46;;;;;;;12.07;6.97;;;16.10;99.90;;;;;;6161856;23;20143;-92
2023/10/09 02:47:20;;;;;;;15.13;8.03;;;16.10;99.90;;;;;;6135733;23;20191;-92
2023/10/09 02:49:48;;;;;;;15.60;7.07;;;16.20;99.90;;;;;;6129054;23;20195;-92
2023/10/09 02:52:25;;;;;;;10.53;5.00;;;16.30;99.90;;;;;;6130011;23;20509;-91
2023/10/09 02:54:59;;;;;;;9.97;4.73;;;16.50;99.90;;;;;;6120380;23;20195;-90
2023/10/09 02:57:35;;;;;;;6.47;4.37;;;16.50;99.90;;;;;;6107702;23;20307;-90
2023/10/09 03:00:08;;;;;;;6.67;4.60;;;16.60;99.90;;;;;;6131857;23;20475;-90
2023/10/09 03:02:39;;;;;;;10.30;4.73;;;16.70;99.90;;;;;;6132587;23;20485;-90
2023/10/09 03:05:11;;;;;;;6.67;4.37;;;16.80;99.90;;;;;;6130539;23;20207;-89
2023/10/09 03:07:40;;;;;;;4.17;3.40;;;16.80;99.90;;;;;;6131074;23;20198;-90
2023/10/09 03:10:09;;;;;;;5.53;3.13;;;16.90;99.90;;;;;;6130226;23;20192;-90
2023/10/09 03:12:39;;;;;;;6.03;3.23;;;16.90;99.90;;;;;;6131651;23;20259;-90
2023/10/09 03:15:08;;;;;;;15.93;5.23;;;17.00;99.90;;;;;;6107351;23;20192;-91
2023/10/09 03:17:35;;;;;;;10.13;3.30;;;17.00;99.90;;;;;;6108747;23;20164;-91
2023/10/09 03:20:12;;;;;;;5.73;2.33;;;17.10;99.90;;;;;;6132224;23;20282;-90
2023/10/09 03:22:42;;;;;;;7.47;2.93;;;17.20;99.90;;;;;;6107862;23;20195;-90
2023/10/09 03:25:13;;;;;;;13.70;3.43;;;17.20;99.90;;;;;;6158183;23;20283;-90
2023/10/09 03:27:45;;;;;;;7.67;3.40;;;17.30;99.90;;;;;;6131589;23;20258;-90
2023/10/09 03:30:22;;;;;;;6.10;3.43;;;17.30;99.90;;;;;;6131741;23;20200;-90
2023/10/09 03:32:52;;;;;;;6.73;2.77;;;17.30;99.90;;;;;;6133924;23;20230;-89
2023/10/09 03:35:25;;;;;;;5.27;3.63;;;17.40;99.90;;;;;;6134574;23;20155;-89
2023/10/09 03:37:57;;;;;;;9.10;3.17;;;17.30;99.90;;;;;;6133065;23;20251;-89
2023/10/09 03:40:24;;;;;;;9.30;3.57;;;17.40;99.90;;;;;;6133666;23;20242;-89
2023/10/09 03:42:50;;;;;;;9.17;3.53;;;17.40;99.90;;;;;;6132827;23;20199;-89
2023/10/09 03:45:26;;;;;;;3.30;2.43;;;17.40;99.90;;;;;;6108268;23;20199;-91
2023/10/09 03:48:01;;;;;;;6.77;3.03;;;17.40;99.90;;;;;;6111200;23;20206;-88
2023/10/09 03:50:35;;;;;;;6.00;3.10;;;17.40;99.90;;;;;;6134045;23;20135;-89
2023/10/09 03:53:03;;;;;;;5.70;3.13;;;17.40;99.90;;;;;;6112742;23;20195;-89
2023/10/09 03:55:29;;;;;;;6.97;2.67;;;17.30;99.90;;;;;;6110111;23;20546;-89
2023/10/09 03:57:59;;;;;;;5.40;4.83;;;17.30;99.90;;;;;;6109232;23;20236;-90
2023/10/09 04:00:28;;;;;;;10.13;3.30;;;17.40;99.90;;;;;;6108638;23;20196;-91
2023/10/09 04:02:58;;;;;;;11.57;3.03;;;17.30;99.90;;;;;;6132103;23;20182;-90
2023/10/09 04:05:25;;;;;;;4.77;2.00;;;17.40;99.90;;;;;;6108319;23;20682;-89
2023/10/09 04:07:53;;;;;;;7.10;4.20;;;17.30;99.90;;;;;;6108604;23;20211;-89
2023/10/09 04:13:10;;;;;;;4.43;3.00;;;17.30;99.90;;;;;;6116490;23;20199;-91
2023/10/09 04:15:36;;;;;;;4.37;2.27;;;17.20;99.90;;;;;;6110439;23;20191;-89
2023/10/09 04:18:04;;;;;;;8.30;3.67;;;17.30;99.90;;;;;;6109980;23;20171;-89
2023/10/09 04:23:05;;;;;;;4.17;2.77;;;17.30;99.90;;;;;;6131538;23;20245;-87
2023/10/09 04:25:45;;;;;;;6.80;2.47;;;17.30;99.90;;;;;;6132111;23;20210;-90
2023/10/09 04:28:18;;;;;;;5.97;3.67;;;17.20;99.90;;;;;;6132208;23;20207;-89
2023/10/09 04:30:55;;;;;;;8.03;2.90;;;17.20;99.90;;;;;;6132460;23;20219;-88
2023/10/09 04:41:34;;;;;;;4.57;2.93;;;17.20;99.90;;;;;;6114099;23;20151;-89
2023/10/09 04:44:19;;;;;;;5.27;3.00;;;17.20;99.90;;;;;;6105453;23;20199;-89
2023/10/09 04:52:19;;;;;;;4.77;2.87;;;17.20;99.90;;;;;;6133246;23;20671;-89
2023/10/09 04:58:23;;;;;;;2.20;2.00;;;17.20;99.90;;;;;;6155246;23;20703;-91
2023/10/09 05:02:56;;;;;;;2.77;2.27;;;17.10;99.90;;;;;;6105255;23;20480;-90
2023/10/09 05:08:21;;;;;;;19.87;3.33;;;17.20;99.90;;;;;;6132183;23;20287;-89
2023/10/09 05:11:15;;;;;;;2.30;1.73;;;17.20;99.90;;;;;;6129559;23;20195;-91
2023/10/09 05:18:56;;;;;;;4.67;2.90;;;17.10;99.90;;;;;;6155334;23;20226;-91
2023/10/09 05:21:44;;;;;;;4.03;2.50;;;17.10;99.90;;;;;;6129536;23;20226;-91
2023/10/09 05:35:06;;;;;;;5.37;2.20;;;17.20;99.90;;;;;;6132150;23;20199;-88
2023/10/09 05:37:33;;;;;;;11.03;3.23;;;17.10;99.90;;;;;;6114644;23;20226;-92
2023/10/09 06:08:26;;;;;;;3.60;2.60;;;17.10;99.90;;;;;;6153929;23;20175;-90
2023/10/09 06:13:46;;;;;;;5.53;2.53;;;17.00;99.90;;;;;;6129357;23;20250;-89
2023/10/09 06:19:12;;;;;;;6.00;2.70;;;17.10;99.90;;;;;;6129746;23;20199;-89
2023/10/09 06:24:33;;;;;;;3.97;2.03;;;17.10;99.90;;;;;;6130670;23;20207;-89
2023/10/09 06:35:15;;;;;;;5.60;2.53;;;17.00;99.90;;;;;;6152623;23;20237;-92
2023/10/09 06:48:55;;;;;;;13.93;2.97;;;17.00;99.90;;;;;;6135390;23;20207;-91
2023/10/09 06:58:55;;;;;;;6.70;2.87;;;17.00;99.90;;;;;;6154194;23;20286;-92
2023/10/09 07:03:53;;;;;;;10.00;3.30;;;17.00;99.90;;;;;;6106613;23;20678;-92
2023/10/09 07:06:48;;;;;;;6.97;2.77;;;17.00;99.90;;;;;;6128829;23;20195;-92
2023/10/09 07:15:00;;;;;;;11.07;4.33;;;17.10;99.90;;;;;;6129293;23;20194;-91
2023/10/09 07:22:53;;;;;;;3.87;3.50;;;17.00;99.90;;;;;;6130322;23;20195;-91
2023/10/09 07:25:41;;;;;;;6.27;2.70;;;17.00;99.90;;;;;;6107194;23;20203;-91
2023/10/09 07:28:18;;;;;;;6.00;2.90;;;17.00;99.90;;;;;;6128159;23;20238;-90
2023/10/09 07:30:46;;;;;;;7.00;2.33;;;17.00;99.90;;;;;;6127556;23;20202;-91
2023/10/09 07:38:36;;;;;;;3.97;2.30;;;17.00;99.90;;;;;;6154724;23;20229;-91
2023/10/09 07:43:38;;;;;;;10.77;2.17;;;17.00;99.90;;;;;;6103642;23;20191;-88
2023/10/09 07:48:52;;;;;;;8.20;2.20;;;17.00;99.90;;;;;;6131334;23;20210;-91
2023/10/09 07:51:31;;;;;;;7.50;4.10;;;17.00;99.90;;;;;;6103359;23;20202;-91
2023/10/09 07:54:08;;;;;;;3.63;1.97;;;17.00;99.90;;;;;;6127707;23;20243;-90
2023/10/09 07:56:41;;;;;;;6.50;3.00;;;17.10;99.90;;;;;;6128617;23;20202;-91
2023/10/09 07:59:10;;;;;;;14.37;2.77;;;17.10;99.90;;;;;;6130546;23;20230;-92
2023/10/09 08:02:31;;;;;;;9.83;3.63;;;17.00;99.90;;;;;;6127008;23;20218;-90
2023/10/09 08:04:49;;;;;;;3.50;2.07;;;17.10;99.90;;;;;;6147221;23;20203;-90
2023/10/09 08:07:19;;;;;;;2.83;2.60;;;17.10;99.90;;;;;;6126204;23;20290;-90
2023/10/09 08:09:48;;;;;;;9.77;3.93;;;17.10;99.90;;;;;;6102653;23;20278;-90
2023/10/09 08:15:20;;;;;;;4.43;3.27;;;17.00;99.90;;;;;;6130564;23;20159;-90
2023/10/09 08:17:53;;;;;;;3.30;2.23;;;17.10;99.90;;;;;;6127732;23;20174;-89
2023/10/09 08:20:26;;;;;;;5.07;2.90;;;17.10;99.90;;;;;;6128612;23;20150;-90
2023/10/09 08:22:55;;;;;;;9.93;3.07;;;17.10;99.90;;;;;;6148809;23;20227;-90
2023/10/09 08:25:28;;;;;;;7.57;2.57;;;17.10;99.90;;;;;;6128694;23;20286;-89
2023/10/09 08:35:55;;;;;;;5.90;2.30;;;17.30;99.90;;;;;;6153438;23;20140;-92
2023/10/09 08:38:24;;;;;;;6.57;3.17;;;17.30;99.90;;;;;;6154650;23;20281;-91
2023/10/09 08:40:58;;;;;;;6.67;2.43;;;17.40;99.90;;;;;;6127841;23;20258;-91
2023/10/09 08:43:24;;;;;;;11.73;2.13;;;17.30;99.90;;;;;;6151753;23;20647;-90
2023/10/09 08:46:02;;;;;;;2.57;2.30;;;17.40;99.90;;;;;;6151131;23;20206;-90
2023/10/09 08:48:29;;;;;;;18.67;4.23;;;17.40;99.90;;;;;;6152782;23;20218;-91
2023/10/09 08:50:56;;;;;;;2.73;1.93;;;17.40;99.90;;;;;;6127762;23;20457;-90
2023/10/09 08:53:27;;;;;;;5.40;2.33;;;17.30;99.90;;;;;;6153188;23;20172;-90
2023/10/09 08:55:53;;;;;;;10.60;2.10;;;17.40;99.90;;;;;;6151393;23;20200;-91
2023/10/09 08:58:32;;;;;;;5.33;2.20;;;17.40;99.90;;;;;;6151031;23;20246;-92
2023/10/09 09:01:00;;;;;;;4.63;4.17;;;17.60;99.90;;;;;;6151537;23;20230;-90
2023/10/09 09:03:26;;;;;;;5.67;2.60;;;17.60;99.90;;;;;;6151081;23;20532;-90
2023/10/09 09:06:01;;;;;;;12.20;2.67;;;17.70;99.90;;;;;;6126209;23;20247;-90
2023/10/09 09:08:30;;;;;;;4.80;2.03;;;17.70;99.90;;;;;;6103543;23;20190;-89
2023/10/09 09:11:17;;;;;;;8.17;2.77;;;17.60;99.90;;;;;;6102240;23;20253;-91
2023/10/09 09:14:05;;;;;;;3.33;2.10;;;17.60;99.90;;;;;;6126026;23;20206;-91
2023/10/09 09:16:33;;;;;;;4.73;2.67;;;17.60;99.90;;;;;;6126785;23;20593;-91
2023/10/09 09:21:44;;;;;;;6.37;3.67;;;17.50;99.90;;;;;;6152464;23;20201;-92
2023/10/09 09:26:58;;;;;;;3.50;1.70;;;17.60;99.90;;;;;;6128375;23;20144;-91
2023/10/09 09:29:37;;;;;;;2.00;1.73;;;17.60;99.90;;;;;;6079970;23;20199;-91
2023/10/09 09:32:18;;;;;;;5.53;2.67;;;17.60;99.90;;;;;;6096819;23;20545;-91
2023/10/09 09:34:45;;;;;;;1.17;1.13;;;17.50;99.90;;;;;;6074747;23;20204;-91
2023/10/09 09:37:19;;;;;;;1.60;1.50;;;17.60;99.90;;;;;;6139044;23;20271;-90
2023/10/09 09:39:51;;;;;;;17.97;3.23;;;17.60;99.90;;;;;;6101744;23;20226;-91
2023/10/09 09:42:25;;;;;;;3.70;1.77;;;17.50;99.90;;;;;;6103398;23;20195;-90
2023/10/09 09:44:55;;;;;;;3.27;1.67;;;17.60;99.90;;;;;;6127572;23;20239;-89
2023/10/09 09:47:27;;;;;;;4.03;2.33;;;17.60;99.90;;;;;;6127504;23;20577;-92
2023/10/09 09:50:00;;;;;;;1.50;1.33;;;17.50;99.90;;;;;;6102118;23;20195;-91
2023/10/09 09:52:38;;;;;;;3.03;1.77;;;17.50;99.90;;;;;;6126006;23;20246;-91
2023/10/09 09:55:07;;;;;;;6.03;2.07;;;17.50;99.90;;;;;;6103747;23;20221;-91
2023/10/09 09:57:39;;;;;;;3.27;1.57;;;17.60;99.90;;;;;;6127664;23;20195;-90
2023/10/09 10:00:17;;;;;;;2.63;2.20;;;17.60;99.90;;;;;;6103347;23;20291;-90
2023/10/09 10:02:45;;;;;;;3.97;2.33;;;17.60;99.90;;;;;;6126594;23;20178;-91
2023/10/09 10:05:15;;;;;;;3.90;1.83;;;17.60;99.90;;;;;;6101615;23;20202;-91
2023/10/09 10:07:49;;;;;;;5.87;2.27;;;17.70;99.90;;;;;;6102812;23;20623;-91
2023/10/09 10:10:53;;;;;;;1.63;1.33;;;17.80;99.90;;;;;;6126456;23;20199;-91
2023/10/09 10:13:41;;;;;;;3.43;2.33;;;17.90;99.90;;;;;;6126580;23;20195;-91
2023/10/09 10:19:07;;;;;;;5.90;2.90;;;18.00;99.90;;;;;;6128274;23;20202;-93
2023/10/09 10:21:41;;;;;;;6.73;2.77;;;18.10;99.90;;;;;;6103465;23;20278;-91
2023/10/09 10:24:29;;;;;;;5.27;2.70;;;18.20;99.90;;;;;;6126098;23;20262;-91
2023/10/09 10:27:09;;;;;;;2.53;1.90;;;18.30;99.90;;;;;;6126656;23;20170;-94
2023/10/09 10:29:38;;;;;;;4.97;2.80;;;18.10;99.90;;;;;;6126771;23;20170;-91
2023/10/09 10:32:08;;;;;;;5.57;2.37;;;18.00;99.90;;;;;;6125875;23;20206;-90
2023/10/09 10:34:58;;;;;;;2.30;1.70;;;18.00;99.90;;;;;;6102816;23;20273;-92
2023/10/09 10:38:15;;;;;;;2.00;1.50;;;17.90;99.90;;;;;;6127750;23;20230;-93
2023/10/09 10:40:46;;;;;;;3.20;2.07;;;17.80;99.90;;;;;;6128423;23;20195;-94
2023/10/09 10:43:47;;;;;;;4.20;1.93;;;17.90;99.90;;;;;;6104228;23;20525;-91
2023/10/09 10:46:15;;;;;;;3.53;1.33;;;17.90;99.90;;;;;;6108081;23;20202;-91
2023/10/09 10:48:46;;;;;;;3.00;0.97;;;17.90;99.90;;;;;;6099298;23;20657;-90
2023/10/09 10:51:14;;;;;;;2.20;1.27;;;17.90;99.90;;;;;;6085347;23;20258;-89
2023/10/09 10:54:26;;;;;;;7.57;2.23;;;18.00;99.90;;;;;;6101128;23;20163;-88
2023/10/09 10:57:03;;;;;;;1.47;1.17;;;18.00;99.90;;;;;;6117255;23;20691;-88
2023/10/09 10:59:42;;;;;;;6.23;1.67;;;18.10;99.90;;;;;;6120200;23;20152;-90
2023/10/09 11:02:22;;;;;;;1.93;1.37;;;18.00;99.90;;;;;;6119017;23;20203;-88
2023/10/09 11:05:14;;;;;;;4.63;1.80;;;18.00;99.90;;;;;;6119163;23;20255;-89
2023/10/09 11:07:43;;;;;;;2.03;1.20;;;17.90;99.90;;;;;;6080101;23;20537;-89
2023/10/09 11:10:26;;;;;;;2.67;1.50;;;17.90;99.90;;;;;;6136237;23;20620;-90
2023/10/09 11:13:30;;;;;;;4.40;1.90;;;18.00;99.90;;;;;;6087040;23;20283;-90
2023/10/09 11:15:44;;;;;;;9.00;2.00;;;17.90;99.90;;;;;;6088075;23;20195;-89
2023/10/09 11:18:29;;;;;;;3.07;1.90;;;18.00;99.90;;;;;;6125120;23;20203;-90
2023/10/09 11:21:30;;;;;;;3.03;1.13;;;18.00;99.90;;;;;;6125028;23;20139;-90
2023/10/09 11:26:23;;;;;;;3.23;1.60;;;17.90;99.90;;;;;;6127267;23;20620;-90
2023/10/09 11:29:52;;;;;;;2.37;0.90;;;17.90;99.90;;;;;;6124203;23;20214;-89
2023/10/09 11:32:23;;;;;;;1.70;1.27;;;17.90;99.90;;;;;;6102133;23;20485;-89
2023/10/09 11:34:53;;;;;;;1.93;1.80;;;18.00;99.90;;;;;;6120396;23;20206;-89
2023/10/09 11:37:38;;;;;;;5.00;1.50;;;18.10;99.90;;;;;;6111429;23;20207;-89
2023/10/09 11:40:24;;;;;;;1.23;1.13;;;18.20;99.90;;;;;;6143873;23;20200;-88
2023/10/09 11:42:50;;;;;;;2.47;0.90;;;18.30;99.90;;;;;;6098193;23;20206;-89
2023/10/09 11:45:28;;;;;;;1.80;1.17;;;18.20;99.90;;;;;;6145290;23;20266;-90
2023/10/09 11:47:59;;;;;;;5.00;1.80;;;18.10;99.90;;;;;;6122300;23;20179;-89
2023/10/09 11:50:53;;;;;;;3.87;1.50;;;18.20;99.90;;;;;;6123311;23;20144;-89
2023/10/09 11:55:54;;;;;;;3.20;1.77;;;18.10;99.90;;;;;;6121658;23;20994;-88
2023/10/09 11:58:24;;;;;;;1.33;1.13;;;18.10;99.90;;;;;;6146610;23;20226;-90
2023/10/09 12:00:51;;;;;;;11.07;2.00;;;18.00;99.90;;;;;;6145925;23;20235;-89
2023/10/09 12:03:21;;;;;;;2.73;1.23;;;18.00;99.90;;;;;;6144188;23;20219;-90
2023/10/09 12:05:48;;;;;;;2.20;1.50;;;18.00;99.90;;;;;;6114541;23;20207;-88
2023/10/09 12:08:16;;;;;;;7.13;1.47;;;18.00;99.90;;;;;;6119935;23;21045;-88
2023/10/09 12:10:48;;;;;;;2.83;1.80;;;18.00;99.90;;;;;;6112503;23;20547;-89
2023/10/09 12:13:15;;;;;;;2.63;1.73;;;17.90;99.90;;;;;;6096406;23;20334;-89
2023/10/09 12:15:45;;;;;;;11.10;2.77;;;18.00;99.90;;;;;;6121395;23;20163;-90
2023/10/09 12:18:18;;;;;;;2.20;1.43;;;18.00;99.90;;;;;;6085553;23;20271;-90
2023/10/09 12:20:56;;;;;;;2.10;1.27;;;17.90;99.90;;;;;;6120620;23;20641;-90
2023/10/09 12:23:23;;;;;;;11.50;2.27;;;17.90;99.90;;;;;;6087067;23;20279;-89
2023/10/09 12:25:50;;;;;;;5.77;2.27;;;17.90;99.90;;;;;;6121764;23;20230;-89
2023/10/09 12:28:20;;;;;;;6.17;2.27;;;18.00;99.90;;;;;;6096730;23;20286;-90
2023/10/09 12:30:50;;;;;;;7.63;2.47;;;18.00;99.90;;;;;;6099178;23;20585;-90
2023/10/09 12:33:19;;;;;;;6.30;2.17;;;18.10;99.90;;;;;;6096990;23;20204;-90
2023/10/09 12:35:47;;;;;;;2.93;2.43;;;18.10;99.90;;;;;;6121588;23;20199;-91
2023/10/09 12:38:18;;;;;;;1.10;1.03;;;18.00;99.90;;;;;;6096442;23;20199;-89
2023/10/09 12:40:50;;;;;;;2.87;1.67;;;18.20;99.90;;;;;;6121204;23;20191;-89
2023/10/09 12:43:19;;;;;;;3.37;1.53;;;18.30;99.90;;;;;;6120515;23;20205;-89
2023/10/09 12:45:48;;;;;;;3.13;1.80;;;18.20;99.90;;;;;;6122108;23;20191;-89
2023/10/09 12:48:14;;;;;;;3.17;1.20;;;18.20;99.90;;;;;;6121297;23;20200;-88
2023/10/09 12:50:44;;;;;;;1.93;1.40;;;18.30;99.90;;;;;;6097063;23;20231;-89
2023/10/09 12:53:10;;;;;;;1.63;1.30;;;18.30;99.90;;;;;;6120269;23;20192;-89
2023/10/09 12:55:41;;;;;;;3.27;1.93;;;18.50;99.90;;;;;;6096783;23;20196;-89
2023/10/09 12:58:08;;;;;;;2.43;1.03;;;18.60;99.90;;;;;;6123151;23;20218;-89
2023/10/09 13:00:48;;;;;;;1.97;1.73;;;18.70;99.90;;;;;;6122408;23;20160;-89
2023/10/09 13:03:18;;;;;;;1.57;1.37;;;18.70;99.90;;;;;;6120306;23;20200;-90
2023/10/09 13:05:54;;;;;;;3.70;1.70;;;18.70;99.90;;;;;;6149593;23;20215;-90
2023/10/09 13:08:21;;;;;;;7.93;1.73;;;18.80;99.90;;;;;;6150273;23;20745;-90
2023/10/09 13:10:58;;;;;;;3.67;1.57;;;18.80;99.90;;;;;;6150364;23;20201;-90
2023/10/09 13:13:36;;;;;;;2.53;2.33;;;18.80;99.90;;;;;;6127567;23;20218;-89
2023/10/09 13:16:06;;;;;;;2.00;1.27;;;18.70;99.90;;;;;;6128207;23;20156;-90
2023/10/09 13:18:32;;;;;;;5.53;1.50;;;18.60;99.90;;;;;;6127694;23;20583;-90
2023/10/09 13:20:57;;;;;;;5.77;1.67;;;18.60;99.90;;;;;;6124681;23;20199;-89
2023/10/09 13:23:27;;;;;;;0.90;0.90;;;18.70;99.90;;;;;;6125768;23;20203;-89
2023/10/09 13:25:53;;;;;;;2.70;1.60;;;18.60;99.90;;;;;;6150620;23;20203;-90
2023/10/09 13:28:21;;;;;;;2.57;2.27;;;18.70;99.90;;;;;;6125632;23;20294;-89
2023/10/09 13:30:50;;;;;;;1.13;1.03;;;18.50;99.90;;;;;;6126436;23;20167;-90
2023/10/09 13:33:17;;;;;;;3.13;1.43;;;18.40;99.90;;;;;;6125385;23;20714;-90
2023/10/09 13:35:50;;;;;;;1.77;1.30;;;18.40;99.90;;;;;;6125997;23;20200;-90
2023/10/09 13:38:16;;;;;;;1.70;1.60;;;18.40;99.90;;;;;;6126349;23;20554;-90
2023/10/09 13:40:42;;;;;;;4.17;1.90;;;18.40;99.90;;;;;;6149770;23;20250;-90
2023/10/09 13:43:16;;;;;;;2.00;1.13;;;18.20;99.90;;;;;;6124411;23;20592;-90
2023/10/09 13:45:49;;;;;;;3.57;1.47;;;18.20;99.90;;;;;;6127264;23;20154;-90
2023/10/09 13:48:17;;;;;;;1.50;0.90;;;18.10;99.90;;;;;;6149269;23;20589;-89
2023/10/09 13:50:43;;;;;;;2.63;1.43;;;18.20;99.90;;;;;;6125032;23;20206;-89
2023/10/09 13:53:11;;;;;;;1.40;1.30;;;18.20;99.90;;;;;;6124033;23;20718;-90
2023/10/09 13:55:43;;;;;;;2.70;1.23;;;18.20;99.90;;;;;;6125524;23;20191;-90
2023/10/09 13:58:13;;;;;;;3.67;1.70;;;18.20;99.90;;;;;;6127416;23;20152;-89
2023/10/09 14:00:42;;;;;;;1.87;1.17;;;18.10;99.90;;;;;;6149563;23;20247;-89
2023/10/09 14:03:12;;;;;;;1.57;1.47;;;18.10;99.90;;;;;;6148455;23;20195;-88
2023/10/09 14:05:44;;;;;;;3.47;1.57;;;18.00;99.90;;;;;;6125180;23;20231;-89
2023/10/09 14:08:15;;;;;;;1.23;1.13;;;18.00;99.90;;;;;;6125769;23;20290;-91
2023/10/09 14:10:48;;;;;;;5.87;1.67;;;18.00;99.90;;;;;;6150113;23;20211;-92
2023/10/09 14:13:25;;;;;;;0.97;0.97;;;18.00;99.90;;;;;;6124845;23;20218;-91
2023/10/09 14:15:54;;;;;;;3.17;1.57;;;18.10;99.90;;;;;;6128581;23;20143;-91
2023/10/09 14:18:23;;;;;;;1.47;1.33;;;18.20;99.90;;;;;;6126352;23;20521;-92
2023/10/09 14:20:49;;;;;;;3.30;1.93;;;18.20;99.90;;;;;;6125567;23;20207;-92
2023/10/09 14:23:20;;;;;;;3.47;1.73;;;18.30;99.90;;;;;;6115225;23;20198;-91
2023/10/09 14:25:49;;;;;;;3.87;1.63;;;18.30;99.90;;;;;;6127081;23;20762;-91
2023/10/09 14:28:18;;;;;;;5.63;2.20;;;18.20;99.90;;;;;;6149697;23;20211;-91
2023/10/09 14:30:48;;;;;;;1.83;1.40;;;18.20;99.90;;;;;;6126484;23;20160;-92
2023/10/09 14:33:22;;;;;;;1.33;0.90;;;18.20;99.90;;;;;;6148781;23;20195;-91
2023/10/09 14:35:48;;;;;;;1.37;0.83;;;18.20;99.90;;;;;;6128014;23;20264;-91
2023/10/09 14:38:15;;;;;;;1.17;1.03;;;18.20;99.90;;;;;;6125546;23;20606;-91
2023/10/09 14:40:42;;;;;;;5.77;2.93;;;18.30;99.90;;;;;;6150029;23;20302;-92
2023/10/09 14:43:18;;;;;;;2.23;1.20;;;18.10;99.90;;;;;;6125243;23;20163;-91
2023/10/09 14:45:54;;;;;;;6.20;1.57;;;18.10;99.90;;;;;;6151954;23;20152;-90
2023/10/09 14:48:26;;;;;;;5.83;2.77;;;18.20;99.90;;;;;;6150293;23;20257;-91
2023/10/09 14:51:04;;;;;;;7.37;2.00;;;18.10;99.90;;;;;;6149817;23;20233;-93
2023/10/09 14:53:30;;;;;;;5.67;2.07;;;18.10;99.90;;;;;;6150189;23;20195;-91
2023/10/09 14:55:57;;;;;;;5.43;2.30;;;18.10;99.90;;;;;;6125244;23;20590;-91
2023/10/09 14:58:28;;;;;;;5.80;2.10;;;18.00;99.90;;;;;;6149764;23;20244;-91
2023/10/09 15:00:57;;;;;;;1.13;0.87;;;18.10;99.90;;;;;;6149236;23;20151;-90
2023/10/09 15:03:23;;;;;;;1.27;0.90;;;18.20;99.90;;;;;;6150778;23;20167;-90
2023/10/09 15:05:51;;;;;;;0.93;0.93;;;18.20;99.90;;;;;;6125715;23;20281;-91
2023/10/09 15:08:17;;;;;;;2.20;1.03;;;18.10;99.90;;;;;;6124975;23;20203;-92
2023/10/09 15:10:51;;;;;;;2.33;1.00;;;18.00;99.90;;;;;;6126033;23;20222;-89
2023/10/09 15:13:18;;;;;;;1.37;0.97;;;17.90;99.90;;;;;;6149750;23;20198;-91
2023/10/09 15:15:45;;;;;;;2.20;1.50;;;17.90;99.90;;;;;;6126187;23;20170;-92
2023/10/09 15:18:14;;;;;;;2.27;1.10;;;17.90;99.90;;;;;;6151471;23;20210;-93
2023/10/09 15:20:40;;;;;;;4.57;1.40;;;17.80;99.90;;;;;;6152498;23;20222;-91
2023/10/09 15:23:08;;;;;;;1.90;0.50;;;17.80;99.90;;;;;;6151214;23;20353;-91
2023/10/09 15:25:39;;;;;;;1.53;1.03;;;17.80;99.90;;;;;;6151961;23;20231;-92
2023/10/09 15:28:09;;;;;;;1.17;0.90;;;17.70;99.90;;;;;;6127759;23;20270;-91
2023/10/09 15:30:37;;;;;;;3.97;1.57;;;17.70;99.90;;;;;;6127491;23;20665;-93
2023/10/09 15:33:08;;;;;;;1.70;1.07;;;17.70;99.90;;;;;;6128887;23;20560;-90
2023/10/09 15:35:34;;;;;;;1.47;1.17;;;17.70;99.90;;;;;;6128108;23;20195;-90
2023/10/09 15:38:03;;;;;;;3.13;1.23;;;17.70;99.90;;;;;;6127514;23;20195;-92
2023/10/09 15:40:34;;;;;;;1.40;1.30;;;17.80;99.90;;;;;;6151958;23;20195;-93
2023/10/09 15:43:01;;;;;;;2.40;1.53;;;17.70;99.90;;;;;;6151749;23;20152;-91
2023/10/09 15:45:31;;;;;;;2.77;1.40;;;17.70;99.90;;;;;;6152818;23;20163;-90
2023/10/09 15:47:59;;;;;;;2.13;1.20;;;17.70;99.90;;;;;;6128606;23;20206;-89
2023/10/09 15:50:25;;;;;;;2.97;1.30;;;17.70;99.90;;;;;;6126867;23;20200;-89
2023/10/09 15:52:55;;;;;;;1.47;1.10;;;17.80;99.90;;;;;;6126481;23;20205;-90
2023/10/09 15:55:24;;;;;;;1.53;1.43;;;17.60;99.90;;;;;;6152565;23;20195;-89
2023/10/09 15:57:54;;;;;;;1.97;1.03;;;17.40;99.90;;;;;;6129072;23;20655;-88
2023/10/09 16:00:21;;;;;;;3.40;0.77;;;17.30;99.90;;;;;;6152091;23;20206;-90
2023/10/09 16:02:48;;;;;;;1.77;1.20;;;17.30;99.90;;;;;;6127195;23;20282;-91
2023/10/09 16:05:16;;;;;;;1.40;1.10;;;17.30;99.90;;;;;;6151054;23;20214;-91
2023/10/09 16:07:43;;;;;;;1.37;1.27;;;17.40;99.90;;;;;;6151473;23;20222;-90
2023/10/09 16:10:10;;;;;;;5.17;1.23;;;17.50;99.90;;;;;;6152311;23;20190;-92
2023/10/09 16:12:43;;;;;;;1.67;1.40;;;17.50;99.90;;;;;;6128332;23;20171;-92
2023/10/09 16:15:10;;;;;;;1.00;0.90;;;17.40;99.90;;;;;;6151840;23;20199;-91
2023/10/09 16:17:37;;;;;;;0.93;0.90;;;17.40;99.90;;;;;;6127454;23;20199;-89
2023/10/09 16:20:13;;;;;;;5.23;1.50;;;17.20;99.90;;;;;;6126999;23;20273;-95